Friday, March 23, 2018, 10:51 PM GMT
Back to Local

CYSJ, Saint John, N. B.

Location: , , Canada Lat: 45.333
Local Time: 10:51 PM GMT (22:51 GMT) Lon: -65.883
Time Zone: GMT Elev: 337 ft

Show me the last for .
Show Decoded

2018-03-23 22:00 METAR CYSJ 232200Z 02003KT 15SM OVC051 02/M03 A2986 RMK SC8 SLP118 =
2018-03-23 21:15 METAR CYSJ 232115Z 36006KT 15SM SCT038 OVC058 03/M04 A2985 RMK SC4SC4 SLP113 =
2018-03-23 21:00 METAR CYSJ 232100Z 36008KT 15SM -SN SCT038 OVC060 03/M04 A2984 RMK SC4SC4 SLP111
2018-03-23 20:00 METAR CYSJ 232000Z 35009G17KT 15SM -SN BKN035 OVC054 03/M04 A2983 RMK SC6SC2
                 SLP106 =
2018-03-23 19:00 METAR CYSJ 231900Z 36013G20KT 15SM -SN BKN037 OVC044 03/M04 A2980 RMK SC6SC2
                 SLP099 =
2018-03-23 18:00 METAR CYSJ 231800Z 35012G20KT 15SM -SN OVC027 02/M03 A2980 RMK SC8 SLP098 =
2018-03-23 17:00 METAR CYSJ 231700Z 35016G21KT 15SM -SN OVC030 02/M04 A2980 RMK SC8 SLP096 =
2018-03-23 16:00 METAR CYSJ 231600Z 35013G20KT 15SM -SN BKN022 OVC035 02/M03 A2978 RMK SC6SC2
                 SLP092 =
2018-03-23 15:00 METAR CYSJ 231500Z 34015KT 12SM -SN BKN022 OVC040 02/M03 A2977 RMK SC7SC1 SLP089
2018-03-23 14:14 METAR CYSJ 231414Z 34012G18KT 10SM -SN OVC020 01/M03 A2977 RMK SC8 SLP087
2018-03-23 14:00 METAR CYSJ 231400Z 34015KT 15SM OVC020 01/M03 A2976 RMK SC8 SLP085 =
2018-03-23 13:00 METAR CYSJ 231300Z 34013G19KT 12SM OVC018 M00/M03 A2974 RMK SC8 SLP079 =
2018-03-23 12:00 METAR CYSJ 231200Z 34018G24KT 10SM DRSN OVC015 M01/M03 A2972 RMK SC8 SLP070 =
2018-03-23 11:43 METAR CYSJ 231143Z 35013G21KT 10SM DRSN BKN014 OVC022 M01/M03 A2971 RMK SC6SC2
                 SLP068 =
2018-03-23 11:00 METAR CYSJ 231100Z 34016G23KT 6SM -SN DRSN OVC015 M01/M03 A2969 RMK SC8 SLP062 =
2018-03-23 10:00 METAR CYSJ 231000Z 34017KT 4SM -SN DRSN OVC014 M01/M03 A2967 RMK SC8 SLP054 =
2018-03-23 09:00 METAR CYSJ 230900Z 34016G22KT 4SM -SN DRSN OVC014 M01/M03 A2964 RMK SC8 PRESRR
                 SLP045 =
2018-03-23 08:00 METAR CYSJ 230800Z 34016G21KT 4SM -SN DRSN OVC012 M02/M03 A2960 RMK SC8 SLP032 =
2018-03-23 07:00 METAR CYSJ 230700Z 34015G24KT 3SM -SN DRSN OVC011 M01/M03 A2959 RMK SC8 SLP026 =
2018-03-23 06:00 METAR CYSJ 230600Z 35020G33KT 4SM -SN DRSN FEW008 OVC015 M02/M03 A2954 RMK
                 SF2SC6 SLP011 =
2018-03-23 05:00 METAR CYSJ 230500Z 35024G34KT 4SM -SN DRSN OVC016 M02/M03 A2951 RMK SC8 SLP999 =
2018-03-23 04:00 METAR CYSJ 230400Z 35026G36KT 4SM -SN DRSN BKN006 OVC022 M01/M03 A2951 RMK
                 SC5SC3 /S01/ SLP000 =
2018-03-23 03:00 METAR CYSJ 230300Z 35028G38KT 4SM -SN DRSN BKN018 OVC028 M01/M04 A2950 RMK
                 SC5SC3 SLP996 =
2018-03-23 02:00 METAR CYSJ 230200Z 35025G34KT 4SM -SN DRSN FEW012 OVC020 M02/M04 A2950 RMK
                 SF2SC6 SLP996 =
2018-03-23 01:00 METAR CYSJ 230100Z 36024G31KT 4SM -SN DRSN FEW012 OVC019 M02/M04 A2950 RMK
                 SF2SC6 SLP998 =
2018-03-23 00:51 METAR CYSJ 230051Z 35024G41KT 3SM R05/5500VP6000FT/U -SN BLSN FEW012 OVC020
                 M02/M04 A2950 RMK SF2SC6 SLP998 =
2018-03-23 00:00 METAR CYSJ 230000Z 36020G37KT 2SM -SN BLSN OVC014 M02/M04 A2950 RMK SC8 /S05/
                 SLP998 =
2018-03-22 23:00 METAR CYSJ 222300Z 36023G33KT 2SM -SN BLSN OVC014 M02/M04 A2948 RMK SC8 SLP991 =

Support USWX by starting your Amazon purchase here.